sensor_id;sensor_type;location;lat;lon;timestamp;P1;durP1;ratioP1;P2;durP2;ratioP2
489;SDS011;231;48.120;11.576;2023-06-14T00:01:58;6.80;;;6.10;;
489;SDS011;231;48.120;11.576;2023-06-14T00:04:25;6.63;;;6.13;;
489;SDS011;231;48.120;11.576;2023-06-14T00:06:52;7.63;;;6.70;;
489;SDS011;231;48.120;11.576;2023-06-14T00:09:21;7.30;;;6.47;;
489;SDS011;231;48.120;11.576;2023-06-14T00:11:50;6.70;;;6.30;;
489;SDS011;231;48.120;11.576;2023-06-14T00:14:16;6.27;;;5.93;;
489;SDS011;231;48.120;11.576;2023-06-14T00:16:43;6.87;;;6.10;;
489;SDS011;231;48.120;11.576;2023-06-14T00:19:10;7.03;;;6.63;;
489;SDS011;231;48.120;11.576;2023-06-14T00:21:37;8.50;;;7.33;;
489;SDS011;231;48.120;11.576;2023-06-14T00:24:04;7.27;;;6.87;;
489;SDS011;231;48.120;11.576;2023-06-14T00:26:31;9.00;;;6.50;;
489;SDS011;231;48.120;11.576;2023-06-14T00:29:00;8.50;;;7.53;;
489;SDS011;231;48.120;11.576;2023-06-14T00:31:27;6.50;;;6.10;;
489;SDS011;231;48.120;11.576;2023-06-14T00:33:54;8.07;;;6.60;;
489;SDS011;231;48.120;11.576;2023-06-14T00:36:21;8.50;;;6.90;;
489;SDS011;231;48.120;11.576;2023-06-14T00:38:48;9.07;;;5.80;;
489;SDS011;231;48.120;11.576;2023-06-14T00:41:15;8.00;;;7.60;;
489;SDS011;231;48.120;11.576;2023-06-14T00:43:42;7.17;;;6.67;;
489;SDS011;231;48.120;11.576;2023-06-14T00:46:10;7.80;;;7.40;;
489;SDS011;231;48.120;11.576;2023-06-14T00:48:37;7.00;;;6.60;;
489;SDS011;231;48.120;11.576;2023-06-14T00:51:05;7.47;;;7.07;;
489;SDS011;231;48.120;11.576;2023-06-14T00:53:32;9.33;;;7.07;;
489;SDS011;231;48.120;11.576;2023-06-14T00:56:00;7.37;;;6.97;;
489;SDS011;231;48.120;11.576;2023-06-14T00:58:28;6.23;;;5.90;;
489;SDS011;231;48.120;11.576;2023-06-14T01:00:56;6.80;;;6.40;;
489;SDS011;231;48.120;11.576;2023-06-14T01:03:24;8.10;;;6.87;;
489;SDS011;231;48.120;11.576;2023-06-14T01:05:56;7.23;;;6.83;;
489;SDS011;231;48.120;11.576;2023-06-14T01:08:35;6.10;;;5.80;;
489;SDS011;231;48.120;11.576;2023-06-14T01:11:10;6.90;;;6.50;;
489;SDS011;231;48.120;11.576;2023-06-14T01:13:43;7.00;;;6.60;;
489;SDS011;231;48.120;11.576;2023-06-14T01:16:12;9.00;;;6.30;;
489;SDS011;231;48.120;11.576;2023-06-14T01:18:42;6.77;;;6.30;;
489;SDS011;231;48.120;11.576;2023-06-14T01:21:19;7.00;;;6.50;;
489;SDS011;231;48.120;11.576;2023-06-14T01:23:49;8.30;;;6.77;;
489;SDS011;231;48.120;11.576;2023-06-14T01:26:18;7.43;;;7.03;;
489;SDS011;231;48.120;11.576;2023-06-14T01:28:46;6.83;;;6.43;;
489;SDS011;231;48.120;11.576;2023-06-14T01:31:16;6.43;;;6.10;;
489;SDS011;231;48.120;11.576;2023-06-14T01:33:44;5.67;;;5.37;;
489;SDS011;231;48.120;11.576;2023-06-14T01:36:12;6.80;;;6.40;;
489;SDS011;231;48.120;11.576;2023-06-14T01:38:41;6.97;;;6.57;;
489;SDS011;231;48.120;11.576;2023-06-14T01:41:11;6.77;;;6.33;;
489;SDS011;231;48.120;11.576;2023-06-14T01:43:40;6.17;;;5.90;;
489;SDS011;231;48.120;11.576;2023-06-14T01:46:08;6.47;;;6.03;;
489;SDS011;231;48.120;11.576;2023-06-14T01:48:37;5.70;;;5.40;;
489;SDS011;231;48.120;11.576;2023-06-14T01:51:04;7.80;;;7.37;;
489;SDS011;231;48.120;11.576;2023-06-14T01:53:31;8.27;;;7.50;;
489;SDS011;231;48.120;11.576;2023-06-14T01:55:57;7.20;;;6.80;;
489;SDS011;231;48.120;11.576;2023-06-14T01:58:26;8.80;;;7.27;;
489;SDS011;231;48.120;11.576;2023-06-14T02:00:53;8.77;;;7.57;;
489;SDS011;231;48.120;11.576;2023-06-14T02:03:21;7.90;;;7.50;;
489;SDS011;231;48.120;11.576;2023-06-14T02:05:50;7.30;;;6.90;;
489;SDS011;231;48.120;11.576;2023-06-14T02:08:17;7.10;;;6.70;;
489;SDS011;231;48.120;11.576;2023-06-14T02:10:44;7.30;;;6.90;;
489;SDS011;231;48.120;11.576;2023-06-14T02:13:11;7.00;;;6.60;;
489;SDS011;231;48.120;11.576;2023-06-14T02:15:39;7.00;;;6.60;;
489;SDS011;231;48.120;11.576;2023-06-14T02:18:08;6.87;;;5.93;;
489;SDS011;231;48.120;11.576;2023-06-14T02:20:36;6.13;;;5.83;;
489;SDS011;231;48.120;11.576;2023-06-14T02:23:03;7.20;;;6.80;;
489;SDS011;231;48.120;11.576;2023-06-14T02:25:30;7.03;;;6.63;;
489;SDS011;231;48.120;11.576;2023-06-14T02:27:58;7.60;;;7.20;;
489;SDS011;231;48.120;11.576;2023-06-14T02:30:24;6.90;;;6.50;;
489;SDS011;231;48.120;11.576;2023-06-14T02:32:56;8.00;;;7.60;;
489;SDS011;231;48.120;11.576;2023-06-14T02:35:24;7.20;;;6.80;;
489;SDS011;231;48.120;11.576;2023-06-14T02:37:51;8.30;;;6.60;;
489;SDS011;231;48.120;11.576;2023-06-14T02:40:19;6.53;;;6.13;;
489;SDS011;231;48.120;11.576;2023-06-14T02:42:46;6.73;;;6.33;;
489;SDS011;231;48.120;11.576;2023-06-14T02:45:13;7.20;;;6.80;;
489;SDS011;231;48.120;11.576;2023-06-14T02:47:40;7.47;;;7.07;;
489;SDS011;231;48.120;11.576;2023-06-14T02:50:09;7.87;;;7.47;;
489;SDS011;231;48.120;11.576;2023-06-14T02:52:36;7.13;;;6.70;;
489;SDS011;231;48.120;11.576;2023-06-14T02:55:03;7.00;;;6.60;;
489;SDS011;231;48.120;11.576;2023-06-14T02:57:31;8.27;;;7.87;;
489;SDS011;231;48.120;11.576;2023-06-14T02:59:58;7.50;;;6.63;;
489;SDS011;231;48.120;11.576;2023-06-14T03:02:25;7.97;;;7.57;;
489;SDS011;231;48.120;11.576;2023-06-14T03:04:52;7.60;;;7.20;;
489;SDS011;231;48.120;11.576;2023-06-14T03:07:22;7.63;;;6.33;;
489;SDS011;231;48.120;11.576;2023-06-14T03:09:50;9.60;;;7.10;;
489;SDS011;231;48.120;11.576;2023-06-14T03:12:18;7.17;;;6.77;;
489;SDS011;231;48.120;11.576;2023-06-14T03:14:46;6.27;;;5.93;;
489;SDS011;231;48.120;11.576;2023-06-14T03:17:13;7.27;;;6.87;;
489;SDS011;231;48.120;11.576;2023-06-14T03:19:42;6.83;;;6.43;;
489;SDS011;231;48.120;11.576;2023-06-14T03:22:09;9.83;;;7.90;;
489;SDS011;231;48.120;11.576;2023-06-14T03:24:38;8.73;;;6.50;;
489;SDS011;231;48.120;11.576;2023-06-14T03:27:06;7.47;;;7.07;;
489;SDS011;231;48.120;11.576;2023-06-14T03:29:35;6.83;;;6.43;;
489;SDS011;231;48.120;11.576;2023-06-14T03:32:02;7.37;;;6.97;;
489;SDS011;231;48.120;11.576;2023-06-14T03:34:30;7.27;;;6.87;;
489;SDS011;231;48.120;11.576;2023-06-14T03:36:57;7.20;;;6.80;;
489;SDS011;231;48.120;11.576;2023-06-14T03:39:24;7.90;;;7.47;;
489;SDS011;231;48.120;11.576;2023-06-14T03:41:53;8.17;;;7.67;;
489;SDS011;231;48.120;11.576;2023-06-14T03:44:20;6.70;;;6.30;;
489;SDS011;231;48.120;11.576;2023-06-14T03:46:47;6.80;;;6.40;;
489;SDS011;231;48.120;11.576;2023-06-14T03:49:16;6.97;;;6.57;;
489;SDS011;231;48.120;11.576;2023-06-14T03:51:43;7.33;;;6.93;;
489;SDS011;231;48.120;11.576;2023-06-14T03:54:10;6.10;;;5.80;;
489;SDS011;231;48.120;11.576;2023-06-14T03:56:37;8.20;;;7.80;;
489;SDS011;231;48.120;11.576;2023-06-14T03:59:06;6.47;;;6.07;;
489;SDS011;231;48.120;11.576;2023-06-14T04:01:33;7.43;;;6.93;;
489;SDS011;231;48.120;11.576;2023-06-14T04:04:01;6.17;;;5.87;;
489;SDS011;231;48.120;11.576;2023-06-14T04:06:28;6.33;;;5.97;;
489;SDS011;231;48.120;11.576;2023-06-14T04:09:00;5.93;;;5.63;;
489;SDS011;231;48.120;11.576;2023-06-14T04:11:28;7.00;;;6.07;;
489;SDS011;231;48.120;11.576;2023-06-14T04:13:55;6.63;;;6.23;;
489;SDS011;231;48.120;11.576;2023-06-14T04:16:24;6.83;;;6.43;;
489;SDS011;231;48.120;11.576;2023-06-14T04:18:51;6.63;;;6.23;;
489;SDS011;231;48.120;11.576;2023-06-14T04:21:20;6.27;;;5.93;;
489;SDS011;231;48.120;11.576;2023-06-14T04:23:52;7.37;;;6.97;;
489;SDS011;231;48.120;11.576;2023-06-14T04:26:20;6.37;;;6.00;;
489;SDS011;231;48.120;11.576;2023-06-14T04:28:48;7.43;;;6.33;;
489;SDS011;231;48.120;11.576;2023-06-14T04:31:17;6.57;;;6.17;;
489;SDS011;231;48.120;11.576;2023-06-14T04:33:50;8.93;;;7.13;;
489;SDS011;231;48.120;11.576;2023-06-14T04:36:18;6.73;;;6.00;;
489;SDS011;231;48.120;11.576;2023-06-14T04:38:46;5.90;;;5.60;;
489;SDS011;231;48.120;11.576;2023-06-14T04:41:15;5.87;;;5.57;;
489;SDS011;231;48.120;11.576;2023-06-14T04:43:43;5.80;;;5.50;;
489;SDS011;231;48.120;11.576;2023-06-14T04:46:13;6.70;;;6.30;;
489;SDS011;231;48.120;11.576;2023-06-14T04:48:40;7.17;;;6.77;;
489;SDS011;231;48.120;11.576;2023-06-14T04:51:09;6.50;;;6.10;;
489;SDS011;231;48.120;11.576;2023-06-14T04:53:36;6.10;;;5.80;;
489;SDS011;231;48.120;11.576;2023-06-14T04:56:03;5.40;;;5.10;;
489;SDS011;231;48.120;11.576;2023-06-14T04:58:30;6.60;;;6.20;;
489;SDS011;231;48.120;11.576;2023-06-14T05:00:57;5.40;;;5.10;;
489;SDS011;231;48.120;11.576;2023-06-14T05:03:25;5.83;;;5.53;;
489;SDS011;231;48.120;11.576;2023-06-14T05:05:52;5.50;;;4.80;;
489;SDS011;231;48.120;11.576;2023-06-14T05:08:31;5.50;;;5.20;;
489;SDS011;231;48.120;11.576;2023-06-14T05:11:29;5.40;;;5.10;;
489;SDS011;231;48.120;11.576;2023-06-14T05:13:56;8.50;;;6.00;;
489;SDS011;231;48.120;11.576;2023-06-14T05:16:24;5.80;;;5.50;;
489;SDS011;231;48.120;11.576;2023-06-14T05:18:52;7.47;;;5.83;;
489;SDS011;231;48.120;11.576;2023-06-14T05:21:19;7.60;;;5.50;;
489;SDS011;231;48.120;11.576;2023-06-14T05:23:47;8.27;;;5.40;;
489;SDS011;231;48.120;11.576;2023-06-14T05:26:15;6.07;;;4.80;;
489;SDS011;231;48.120;11.576;2023-06-14T05:29:54;6.03;;;5.73;;
489;SDS011;231;48.120;11.576;2023-06-14T05:32:00;5.23;;;4.93;;
489;SDS011;231;48.120;11.576;2023-06-14T05:34:31;7.50;;;5.00;;
489;SDS011;231;48.120;11.576;2023-06-14T05:37:06;5.23;;;4.73;;
489;SDS011;231;48.120;11.576;2023-06-14T05:39:58;5.17;;;4.87;;
489;SDS011;231;48.120;11.576;2023-06-14T05:42:25;6.13;;;4.60;;
489;SDS011;231;48.120;11.576;2023-06-14T05:44:51;4.70;;;4.40;;
489;SDS011;231;48.120;11.576;2023-06-14T05:47:23;4.43;;;4.13;;
489;SDS011;231;48.120;11.576;2023-06-14T05:49:56;5.30;;;5.00;;
489;SDS011;231;48.120;11.576;2023-06-14T05:52:23;6.33;;;5.13;;
489;SDS011;231;48.120;11.576;2023-06-14T05:54:50;5.77;;;5.47;;
489;SDS011;231;48.120;11.576;2023-06-14T05:57:18;6.37;;;5.83;;
489;SDS011;231;48.120;11.576;2023-06-14T05:59:45;5.37;;;5.07;;
489;SDS011;231;48.120;11.576;2023-06-14T06:02:12;5.17;;;4.90;;
489;SDS011;231;48.120;11.576;2023-06-14T06:04:39;4.43;;;4.13;;
489;SDS011;231;48.120;11.576;2023-06-14T06:07:06;5.60;;;4.27;;
489;SDS011;231;48.120;11.576;2023-06-14T06:09:33;5.40;;;4.77;;
489;SDS011;231;48.120;11.576;2023-06-14T06:12:00;5.60;;;5.30;;
489;SDS011;231;48.120;11.576;2023-06-14T06:14:28;4.70;;;4.40;;
489;SDS011;231;48.120;11.576;2023-06-14T06:16:55;6.27;;;5.10;;
489;SDS011;231;48.120;11.576;2023-06-14T06:19:22;5.07;;;4.77;;
489;SDS011;231;48.120;11.576;2023-06-14T06:21:49;6.17;;;4.73;;
489;SDS011;231;48.120;11.576;2023-06-14T06:24:15;5.33;;;5.03;;
489;SDS011;231;48.120;11.576;2023-06-14T06:26:42;7.00;;;4.50;;
489;SDS011;231;48.120;11.576;2023-06-14T06:29:09;3.97;;;3.77;;
489;SDS011;231;48.120;11.576;2023-06-14T06:31:38;5.93;;;4.87;;
489;SDS011;231;48.120;11.576;2023-06-14T06:34:04;4.90;;;4.40;;
489;SDS011;231;48.120;11.576;2023-06-14T06:36:31;5.60;;;5.30;;
489;SDS011;231;48.120;11.576;2023-06-14T06:38:58;5.20;;;4.90;;
489;SDS011;231;48.120;11.576;2023-06-14T06:41:25;5.20;;;4.50;;
489;SDS011;231;48.120;11.576;2023-06-14T06:43:53;5.00;;;4.70;;
489;SDS011;231;48.120;11.576;2023-06-14T06:46:19;4.77;;;4.47;;
489;SDS011;231;48.120;11.576;2023-06-14T06:48:48;8.03;;;5.03;;
489;SDS011;231;48.120;11.576;2023-06-14T06:51:14;4.47;;;4.17;;
489;SDS011;231;48.120;11.576;2023-06-14T06:53:42;5.63;;;4.60;;
489;SDS011;231;48.120;11.576;2023-06-14T06:56:10;6.03;;;4.97;;
489;SDS011;231;48.120;11.576;2023-06-14T06:58:36;5.47;;;5.17;;
489;SDS011;231;48.120;11.576;2023-06-14T07:01:03;4.67;;;4.37;;
489;SDS011;231;48.120;11.576;2023-06-14T07:03:30;4.83;;;4.53;;
489;SDS011;231;48.120;11.576;2023-06-14T07:05:58;5.63;;;5.17;;
489;SDS011;231;48.120;11.576;2023-06-14T07:08:25;5.30;;;4.47;;
489;SDS011;231;48.120;11.576;2023-06-14T07:10:52;7.70;;;5.50;;
489;SDS011;231;48.120;11.576;2023-06-14T07:13:19;6.63;;;4.27;;
489;SDS011;231;48.120;11.576;2023-06-14T07:15:46;4.73;;;4.43;;
489;SDS011;231;48.120;11.576;2023-06-14T07:18:13;5.57;;;4.23;;
489;SDS011;231;48.120;11.576;2023-06-14T07:20:40;5.13;;;4.83;;
489;SDS011;231;48.120;11.576;2023-06-14T07:23:09;5.10;;;4.17;;
489;SDS011;231;48.120;11.576;2023-06-14T07:25:36;4.57;;;4.27;;
489;SDS011;231;48.120;11.576;2023-06-14T07:28:03;5.67;;;4.40;;
489;SDS011;231;48.120;11.576;2023-06-14T07:30:30;4.63;;;4.33;;
489;SDS011;231;48.120;11.576;2023-06-14T07:32:57;4.60;;;4.30;;
489;SDS011;231;48.120;11.576;2023-06-14T07:35:24;6.00;;;4.80;;
489;SDS011;231;48.120;11.576;2023-06-14T07:37:51;4.40;;;3.90;;
489;SDS011;231;48.120;11.576;2023-06-14T07:40:19;3.90;;;3.70;;
489;SDS011;231;48.120;11.576;2023-06-14T07:42:46;4.77;;;4.47;;
489;SDS011;231;48.120;11.576;2023-06-14T07:45:14;4.50;;;4.00;;
489;SDS011;231;48.120;11.576;2023-06-14T07:47:42;6.53;;;4.43;;
489;SDS011;231;48.120;11.576;2023-06-14T07:50:09;4.33;;;4.03;;
489;SDS011;231;48.120;11.576;2023-06-14T07:52:36;3.97;;;3.77;;
489;SDS011;231;48.120;11.576;2023-06-14T07:55:03;4.27;;;3.60;;
489;SDS011;231;48.120;11.576;2023-06-14T07:57:33;4.20;;;3.90;;
489;SDS011;231;48.120;11.576;2023-06-14T08:00:00;5.30;;;4.13;;
489;SDS011;231;48.120;11.576;2023-06-14T08:02:27;3.50;;;3.30;;
489;SDS011;231;48.120;11.576;2023-06-14T08:04:53;5.00;;;3.80;;
489;SDS011;231;48.120;11.576;2023-06-14T08:07:20;4.23;;;3.90;;
489;SDS011;231;48.120;11.576;2023-06-14T08:09:47;5.10;;;4.17;;
489;SDS011;231;48.120;11.576;2023-06-14T08:12:14;3.20;;;3.00;;
489;SDS011;231;48.120;11.576;2023-06-14T08:14:43;5.03;;;3.80;;
489;SDS011;231;48.120;11.576;2023-06-14T08:17:10;3.63;;;3.43;;
489;SDS011;231;48.120;11.576;2023-06-14T08:19:36;5.30;;;5.00;;
489;SDS011;231;48.120;11.576;2023-06-14T08:22:04;4.63;;;3.70;;
489;SDS011;231;48.120;11.576;2023-06-14T08:24:31;4.27;;;4.00;;
489;SDS011;231;48.120;11.576;2023-06-14T08:26:58;3.60;;;3.40;;
489;SDS011;231;48.120;11.576;2023-06-14T08:29:26;5.70;;;3.63;;
489;SDS011;231;48.120;11.576;2023-06-14T08:31:55;4.37;;;3.67;;
489;SDS011;231;48.120;11.576;2023-06-14T08:34:22;4.20;;;3.77;;
489;SDS011;231;48.120;11.576;2023-06-14T08:36:49;3.43;;;3.13;;
489;SDS011;231;48.120;11.576;2023-06-14T08:39:16;5.90;;;3.63;;
489;SDS011;231;48.120;11.576;2023-06-14T08:41:44;3.57;;;3.10;;
489;SDS011;231;48.120;11.576;2023-06-14T08:44:13;4.17;;;3.93;;
489;SDS011;231;48.120;11.576;2023-06-14T08:46:41;3.57;;;3.37;;
489;SDS011;231;48.120;11.576;2023-06-14T08:49:11;4.60;;;4.30;;
489;SDS011;231;48.120;11.576;2023-06-14T08:51:39;3.83;;;3.63;;
489;SDS011;231;48.120;11.576;2023-06-14T08:54:06;3.90;;;3.70;;
489;SDS011;231;48.120;11.576;2023-06-14T08:56:34;3.70;;;3.40;;
489;SDS011;231;48.120;11.576;2023-06-14T08:59:06;3.70;;;3.50;;
489;SDS011;231;48.120;11.576;2023-06-14T09:01:36;3.43;;;3.23;;
489;SDS011;231;48.120;11.576;2023-06-14T09:04:03;4.40;;;4.10;;
489;SDS011;231;48.120;11.576;2023-06-14T09:06:32;5.30;;;3.73;;
489;SDS011;231;48.120;11.576;2023-06-14T09:08:59;3.70;;;3.50;;
489;SDS011;231;48.120;11.576;2023-06-14T09:11:27;3.50;;;3.30;;
489;SDS011;231;48.120;11.576;2023-06-14T09:13:54;3.70;;;3.40;;
489;SDS011;231;48.120;11.576;2023-06-14T09:16:20;3.93;;;3.73;;
489;SDS011;231;48.120;11.576;2023-06-14T09:18:47;4.20;;;3.57;;
489;SDS011;231;48.120;11.576;2023-06-14T09:21:15;4.00;;;3.80;;
489;SDS011;231;48.120;11.576;2023-06-14T09:23:44;3.57;;;3.37;;
489;SDS011;231;48.120;11.576;2023-06-14T09:26:13;3.87;;;3.67;;
489;SDS011;231;48.120;11.576;2023-06-14T09:28:41;3.60;;;3.40;;
489;SDS011;231;48.120;11.576;2023-06-14T09:31:09;7.43;;;3.63;;
489;SDS011;231;48.120;11.576;2023-06-14T09:33:36;3.60;;;3.40;;
489;SDS011;231;48.120;11.576;2023-06-14T09:36:03;3.07;;;2.87;;
489;SDS011;231;48.120;11.576;2023-06-14T09:38:34;4.63;;;4.37;;
489;SDS011;231;48.120;11.576;2023-06-14T09:41:02;4.63;;;4.33;;
489;SDS011;231;48.120;11.576;2023-06-14T09:43:30;4.63;;;4.33;;
489;SDS011;231;48.120;11.576;2023-06-14T09:45:59;4.30;;;4.00;;
489;SDS011;231;48.120;11.576;2023-06-14T09:48:26;4.40;;;4.10;;
489;SDS011;231;48.120;11.576;2023-06-14T09:50:53;4.17;;;3.93;;
489;SDS011;231;48.120;11.576;2023-06-14T09:53:24;4.10;;;3.90;;
489;SDS011;231;48.120;11.576;2023-06-14T09:55:54;4.67;;;4.37;;
489;SDS011;231;48.120;11.576;2023-06-14T09:58:25;4.80;;;4.53;;
489;SDS011;231;48.120;11.576;2023-06-14T10:00:54;7.07;;;3.90;;
489;SDS011;231;48.120;11.576;2023-06-14T10:03:24;4.33;;;4.07;;
489;SDS011;231;48.120;11.576;2023-06-14T10:05:55;3.90;;;3.73;;
489;SDS011;231;48.120;11.576;2023-06-14T10:08:27;11.83;;;3.90;;
489;SDS011;231;48.120;11.576;2023-06-14T10:10:58;6.60;;;4.00;;
489;SDS011;231;48.120;11.576;2023-06-14T10:13:26;4.40;;;4.10;;
489;SDS011;231;48.120;11.576;2023-06-14T10:15:58;5.13;;;4.83;;
489;SDS011;231;48.120;11.576;2023-06-14T10:18:40;4.80;;;4.50;;
489;SDS011;231;48.120;11.576;2023-06-14T10:21:13;5.40;;;5.10;;
489;SDS011;231;48.120;11.576;2023-06-14T10:23:48;6.13;;;4.00;;
489;SDS011;231;48.120;11.576;2023-06-14T10:26:20;5.40;;;4.50;;
489;SDS011;231;48.120;11.576;2023-06-14T10:28:58;4.47;;;4.17;;
489;SDS011;231;48.120;11.576;2023-06-14T10:34:11;5.60;;;4.20;;
489;SDS011;231;48.120;11.576;2023-06-14T10:36:41;4.93;;;4.63;;
489;SDS011;231;48.120;11.576;2023-06-14T10:39:10;4.50;;;3.97;;
489;SDS011;231;48.120;11.576;2023-06-14T10:41:42;4.10;;;3.90;;
489;SDS011;231;48.120;11.576;2023-06-14T10:44:32;3.80;;;3.53;;
489;SDS011;231;48.120;11.576;2023-06-14T10:47:10;4.50;;;4.20;;
489;SDS011;231;48.120;11.576;2023-06-14T10:49:49;4.33;;;4.03;;
489;SDS011;231;48.120;11.576;2023-06-14T10:52:20;4.33;;;4.00;;
489;SDS011;231;48.120;11.576;2023-06-14T10:55:01;6.73;;;5.20;;
489;SDS011;231;48.120;11.576;2023-06-14T10:57:31;5.20;;;4.90;;
489;SDS011;231;48.120;11.576;2023-06-14T11:00:00;5.00;;;4.70;;
489;SDS011;231;48.120;11.576;2023-06-14T11:02:48;4.97;;;4.67;;
489;SDS011;231;48.120;11.576;2023-06-14T11:05:39;4.33;;;4.03;;
489;SDS011;231;48.120;11.576;2023-06-14T11:52:37;4.50;;;4.20;;
489;SDS011;231;48.120;11.576;2023-06-14T11:55:05;7.33;;;5.33;;
489;SDS011;231;48.120;11.576;2023-06-14T11:57:33;4.17;;;3.93;;
489;SDS011;231;48.120;11.576;2023-06-14T12:00:04;4.47;;;3.80;;
489;SDS011;231;48.120;11.576;2023-06-14T12:02:37;5.90;;;4.20;;
489;SDS011;231;48.120;11.576;2023-06-14T12:05:05;5.70;;;4.83;;
489;SDS011;231;48.120;11.576;2023-06-14T12:07:34;7.47;;;5.47;;
489;SDS011;231;48.120;11.576;2023-06-14T12:10:07;5.27;;;4.97;;
489;SDS011;231;48.120;11.576;2023-06-14T12:12:36;4.10;;;3.90;;
489;SDS011;231;48.120;11.576;2023-06-14T12:15:03;4.63;;;4.33;;
489;SDS011;231;48.120;11.576;2023-06-14T12:17:34;4.87;;;4.57;;
489;SDS011;231;48.120;11.576;2023-06-14T12:20:06;4.77;;;4.50;;
489;SDS011;231;48.120;11.576;2023-06-14T12:22:36;4.13;;;3.47;;
489;SDS011;231;48.120;11.576;2023-06-14T12:25:03;4.57;;;4.20;;
489;SDS011;231;48.120;11.576;2023-06-14T12:27:32;4.90;;;4.60;;
489;SDS011;231;48.120;11.576;2023-06-14T12:29:59;4.40;;;4.10;;
489;SDS011;231;48.120;11.576;2023-06-14T12:32:27;4.00;;;3.80;;
489;SDS011;231;48.120;11.576;2023-06-14T12:34:54;4.80;;;4.50;;
489;SDS011;231;48.120;11.576;2023-06-14T12:37:21;5.27;;;4.97;;
489;SDS011;231;48.120;11.576;2023-06-14T12:39:48;5.93;;;5.07;;
489;SDS011;231;48.120;11.576;2023-06-14T12:42:16;5.50;;;5.20;;
489;SDS011;231;48.120;11.576;2023-06-14T12:44:44;5.17;;;4.87;;
489;SDS011;231;48.120;11.576;2023-06-14T12:47:11;4.33;;;4.03;;
489;SDS011;231;48.120;11.576;2023-06-14T12:49:38;5.63;;;4.67;;
489;SDS011;231;48.120;11.576;2023-06-14T12:52:08;6.30;;;4.87;;
489;SDS011;231;48.120;11.576;2023-06-14T12:54:35;5.30;;;4.97;;
489;SDS011;231;48.120;11.576;2023-06-14T12:57:04;5.83;;;4.67;;
489;SDS011;231;48.120;11.576;2023-06-14T12:59:31;5.10;;;4.80;;
489;SDS011;231;48.120;11.576;2023-06-14T13:02:01;4.97;;;4.67;;
489;SDS011;231;48.120;11.576;2023-06-14T13:04:37;4.90;;;4.60;;
489;SDS011;231;48.120;11.576;2023-06-14T13:07:04;4.87;;;4.57;;
489;SDS011;231;48.120;11.576;2023-06-14T13:09:31;6.40;;;4.57;;
489;SDS011;231;48.120;11.576;2023-06-14T13:11:58;5.20;;;4.90;;
489;SDS011;231;48.120;11.576;2023-06-14T13:14:25;5.40;;;5.03;;
489;SDS011;231;48.120;11.576;2023-06-14T13:16:52;4.87;;;4.57;;
489;SDS011;231;48.120;11.576;2023-06-14T13:19:21;4.77;;;4.47;;
489;SDS011;231;48.120;11.576;2023-06-14T13:21:48;5.90;;;5.20;;
489;SDS011;231;48.120;11.576;2023-06-14T13:24:15;4.40;;;4.10;;
489;SDS011;231;48.120;11.576;2023-06-14T13:26:42;7.90;;;4.70;;
489;SDS011;231;48.120;11.576;2023-06-14T13:29:09;4.87;;;4.40;;
489;SDS011;231;48.120;11.576;2023-06-14T13:31:36;5.23;;;4.93;;
489;SDS011;231;48.120;11.576;2023-06-14T13:34:03;5.40;;;5.00;;
489;SDS011;231;48.120;11.576;2023-06-14T13:36:32;4.83;;;4.53;;
489;SDS011;231;48.120;11.576;2023-06-14T13:38:58;4.87;;;4.57;;
489;SDS011;231;48.120;11.576;2023-06-14T13:41:25;6.90;;;4.20;;
489;SDS011;231;48.120;11.576;2023-06-14T13:43:56;5.30;;;4.50;;
489;SDS011;231;48.120;11.576;2023-06-14T13:46:24;4.67;;;4.33;;
489;SDS011;231;48.120;11.576;2023-06-14T13:48:51;5.37;;;5.07;;
489;SDS011;231;48.120;11.576;2023-06-14T13:51:19;5.10;;;4.70;;
489;SDS011;231;48.120;11.576;2023-06-14T13:53:47;9.70;;;4.87;;
489;SDS011;231;48.120;11.576;2023-06-14T13:56:15;5.07;;;4.77;;
489;SDS011;231;48.120;11.576;2023-06-14T13:58:43;6.00;;;4.70;;
489;SDS011;231;48.120;11.576;2023-06-14T14:01:10;8.17;;;4.77;;
489;SDS011;231;48.120;11.576;2023-06-14T14:06:59;4.17;;;3.93;;
489;SDS011;231;48.120;11.576;2023-06-14T14:09:27;4.80;;;4.50;;
489;SDS011;231;48.120;11.576;2023-06-14T14:11:54;4.10;;;3.87;;
489;SDS011;231;48.120;11.576;2023-06-14T14:14:21;4.77;;;4.47;;
489;SDS011;231;48.120;11.576;2023-06-14T14:16:49;5.80;;;5.50;;
489;SDS011;231;48.120;11.576;2023-06-14T14:19:16;4.70;;;4.40;;
489;SDS011;231;48.120;11.576;2023-06-14T14:21:44;4.40;;;4.10;;
489;SDS011;231;48.120;11.576;2023-06-14T14:24:11;4.30;;;3.90;;
489;SDS011;231;48.120;11.576;2023-06-14T14:26:39;5.10;;;4.80;;
489;SDS011;231;48.120;11.576;2023-06-14T14:29:06;6.20;;;3.93;;
489;SDS011;231;48.120;11.576;2023-06-14T14:31:33;4.90;;;4.60;;
489;SDS011;231;48.120;11.576;2023-06-14T14:34:00;5.93;;;4.87;;
489;SDS011;231;48.120;11.576;2023-06-14T14:36:27;4.93;;;4.33;;
489;SDS011;231;48.120;11.576;2023-06-14T14:38:54;4.57;;;4.20;;
489;SDS011;231;48.120;11.576;2023-06-14T14:41:21;4.03;;;3.83;;
489;SDS011;231;48.120;11.576;2023-06-14T14:43:49;5.00;;;4.43;;
489;SDS011;231;48.120;11.576;2023-06-14T14:46:16;4.03;;;3.83;;
489;SDS011;231;48.120;11.576;2023-06-14T14:48:43;5.00;;;4.70;;
489;SDS011;231;48.120;11.576;2023-06-14T14:51:09;4.00;;;3.87;;
489;SDS011;231;48.120;11.576;2023-06-14T14:53:37;9.73;;;5.50;;
489;SDS011;231;48.120;11.576;2023-06-14T14:56:04;4.60;;;4.30;;
489;SDS011;231;48.120;11.576;2023-06-14T14:58:31;4.80;;;4.50;;
489;SDS011;231;48.120;11.576;2023-06-14T15:01:00;5.23;;;4.93;;
489;SDS011;231;48.120;11.576;2023-06-14T15:03:27;5.43;;;5.13;;
489;SDS011;231;48.120;11.576;2023-06-14T15:05:53;6.00;;;5.37;;
489;SDS011;231;48.120;11.576;2023-06-14T15:08:21;4.17;;;3.93;;
489;SDS011;231;48.120;11.576;2023-06-14T15:10:47;4.50;;;4.20;;
489;SDS011;231;48.120;11.576;2023-06-14T15:13:14;4.60;;;4.30;;
489;SDS011;231;48.120;11.576;2023-06-14T15:15:42;4.87;;;4.57;;
489;SDS011;231;48.120;11.576;2023-06-14T15:18:14;4.77;;;4.50;;
489;SDS011;231;48.120;11.576;2023-06-14T15:20:42;4.40;;;4.13;;
489;SDS011;231;48.120;11.576;2023-06-14T15:23:08;4.00;;;3.80;;
489;SDS011;231;48.120;11.576;2023-06-14T15:25:35;4.73;;;4.43;;
489;SDS011;231;48.120;11.576;2023-06-14T15:28:08;4.50;;;4.20;;
489;SDS011;231;48.120;11.576;2023-06-14T15:30:35;5.70;;;4.77;;
489;SDS011;231;48.120;11.576;2023-06-14T15:33:02;5.63;;;5.33;;
489;SDS011;231;48.120;11.576;2023-06-14T15:35:30;4.90;;;4.43;;
489;SDS011;231;48.120;11.576;2023-06-14T15:37:57;4.70;;;4.40;;
489;SDS011;231;48.120;11.576;2023-06-14T15:40:24;4.40;;;4.10;;
489;SDS011;231;48.120;11.576;2023-06-14T15:42:51;8.23;;;4.67;;
489;SDS011;231;48.120;11.576;2023-06-14T15:45:18;4.73;;;4.30;;
489;SDS011;231;48.120;11.576;2023-06-14T15:47:45;4.57;;;4.27;;
489;SDS011;231;48.120;11.576;2023-06-14T15:50:24;4.80;;;4.50;;
489;SDS011;231;48.120;11.576;2023-06-14T15:52:53;5.53;;;4.10;;
489;SDS011;231;48.120;11.576;2023-06-14T15:55:20;5.00;;;4.70;;
489;SDS011;231;48.120;11.576;2023-06-14T15:57:47;5.07;;;4.77;;
489;SDS011;231;48.120;11.576;2023-06-14T16:00:15;6.20;;;4.23;;
489;SDS011;231;48.120;11.576;2023-06-14T16:02:42;6.57;;;5.00;;
489;SDS011;231;48.120;11.576;2023-06-14T16:05:09;5.40;;;4.80;;
489;SDS011;231;48.120;11.576;2023-06-14T16:07:36;7.40;;;3.83;;
489;SDS011;231;48.120;11.576;2023-06-14T16:20:47;5.63;;;5.00;;
489;SDS011;231;48.120;11.576;2023-06-14T16:23:15;4.80;;;4.50;;
489;SDS011;231;48.120;11.576;2023-06-14T16:25:43;5.10;;;4.63;;
489;SDS011;231;48.120;11.576;2023-06-14T16:28:10;5.17;;;4.87;;
489;SDS011;231;48.120;11.576;2023-06-14T16:30:37;4.40;;;4.10;;
489;SDS011;231;48.120;11.576;2023-06-14T16:33:03;5.00;;;4.70;;
489;SDS011;231;48.120;11.576;2023-06-14T16:35:30;5.20;;;4.70;;
489;SDS011;231;48.120;11.576;2023-06-14T16:37:59;4.13;;;3.70;;
489;SDS011;231;48.120;11.576;2023-06-14T16:40:26;4.73;;;4.43;;